Menu Close Menu
Station Historical Data
Daily Summary for December 6, 2017 Units:  English    Metric   Both
« Previous Day
Next Day »
Daily Weekly Monthly Yearly Custom
  High: Low: Average:
Temperature: 54.1 °F 36.8 °F 40.2 °F
Dew Point: 52.1 °F 26.9 °F 32.4 °F
Humidity: 93% 58% 74%
Wind Speed: 5.8mph 0.0mph 2mph
Wind Gust: 5.8mph - -
Wind- - SW
Pressure: 30.25 in 30.11 in -
Precipitation: 0.03 in    
Historical Graphs
 
 
Tabular Data for December 6, 2017
Time Temperature Dew Point Pressure Wind Wind Speed Wind Gust Humidity Rainfall Rate (Hourly) solar Conditions
00:01 54.0 °F 52.0 °F 30.11 in SW 2.3 mph   93% 0.01 in WeatherDisplay:10.37 W/m2 -DZ
00:06 54.0 °F 52.0 °F 30.12 in SW 2.3 mph   93% 0.01 in WeatherDisplay:10.37 W/m2 -DZ
00:10 54.1 °F 52.1 °F 30.12 in WSW 1.2 mph 1.2 mph 93% 0.01 in WeatherDisplay:10.37 W/m2 -DZ
00:16 53.6 °F 51.6 °F 30.12 in North 3.5 mph 3.5 mph 93% 0.01 in WeatherDisplay:10.37 W/m2 -DZ
00:21 52.5 °F 49.9 °F 30.12 in ENE 5.8 mph 5.8 mph 91% 0.01 in WeatherDisplay:10.37 W/m2 -DZ
00:26 51.1 °F 48.3 °F 30.13 in East 5.8 mph 5.8 mph 90% 0.02 in WeatherDisplay:10.37 W/m2 -RA
00:31 50.3 °F 47.5 °F 30.13 in South 5.8 mph 5.8 mph 90% 0.02 in WeatherDisplay:10.37 W/m2 -RA
00:36 49.7 °F 46.9 °F 30.13 in East 5.8 mph   90% 0.02 in WeatherDisplay:10.37 W/m2 -RA
00:41 49.3 °F 46.8 °F 30.12 in South 5.8 mph   91% 0.02 in WeatherDisplay:10.37 W/m2 -RA
00:46 48.9 °F 46.4 °F 30.12 in WSW 1.2 mph 1.2 mph 91% 0.02 in WeatherDisplay:10.37 W/m2 -RA
00:51 48.3 °F 45.5 °F 30.12 in ESE 4.6 mph 4.6 mph 90% 0.01 in WeatherDisplay:10.37 W/m2 -RA
00:56 47.8 °F 45.0 °F 30.12 in SW 4.6 mph   90% 0.01 in WeatherDisplay:10.37 W/m2 -RA
01:01 47.2 °F 44.1 °F 30.12 in WNW 4.6 mph 4.6 mph 89% 0.01 in WeatherDisplay:10.37 W/m2 OVC
01:06 46.7 °F 43.6 °F 30.13 in WNW 3.5 mph 3.5 mph 89% 0.01 in WeatherDisplay:10.37 W/m2 OVC
01:12 46.3 °F 42.9 °F 30.13 in SSW 3.5 mph   88% 0.01 in WeatherDisplay:10.37 W/m2 OVC
01:17 46.1 °F 43.0 °F 30.13 in SE 3.5 mph   89% 0.01 in WeatherDisplay:10.37 W/m2 OVC
01:22 45.9 °F 42.8 °F 30.13 in East 2.3 mph 2.3 mph 89% 0.01 in WeatherDisplay:10.37 W/m2 OVC
01:27 45.6 °F 42.5 °F 30.12 in SE 2.3 mph   89% 0.00 in WeatherDisplay:10.37 W/m2 OVC
01:32 45.4 °F 42.1 °F 30.12 in ESE 2.3 mph   88% 0.00 in WeatherDisplay:10.37 W/m2 OVC
01:37 45.3 °F 42.2 °F 30.12 in East 1.2 mph   89% 0.00 in WeatherDisplay:10.37 W/m2 OVC
01:42 44.9 °F 41.6 °F 30.13 in NNE 1.2 mph 1.2 mph 88% 0.00 in WeatherDisplay:10.37 W/m2 OVC
01:47 44.5 °F 40.9 °F 30.13 in WNW 2.3 mph   87% 0.00 in WeatherDisplay:10.37 W/m2 OVC
01:52 44.2 °F 40.9 °F 30.14 in WNW 2.3 mph   88% 0.00 in WeatherDisplay:10.37 W/m2 OVC
01:57 43.9 °F 40.6 °F 30.14 in WNW 1.2 mph   88% 0.00 in WeatherDisplay:10.37 W/m2 OVC
02:02 43.6 °F 40.3 °F 30.14 in Calm     88% 0.00 in WeatherDisplay:10.37 W/m2 BKN
02:07 43.5 °F 40.5 °F 30.13 in WNW 1.2 mph   89% 0.00 in WeatherDisplay:10.37 W/m2 BKN
02:13 43.4 °F 40.4 °F 30.14 in WNW 1.2 mph 1.2 mph 89% 0.00 in WeatherDisplay:10.37 W/m2 BKN
02:18 43.2 °F 39.9 °F 30.14 in NNW 1.2 mph   88% 0.00 in WeatherDisplay:10.37 W/m2 BKN
02:23 43.1 °F 39.5 °F 30.14 in NW 2.3 mph 2.3 mph 87% 0.00 in WeatherDisplay:10.37 W/m2 BKN
02:28 43.1 °F 39.2 °F 30.14 in North 2.3 mph 2.3 mph 86% 0.00 in WeatherDisplay:10.37 W/m2 BKN
02:33 42.9 °F 39.0 °F 30.14 in SW 2.3 mph 2.3 mph 86% 0.00 in WeatherDisplay:10.37 W/m2 BKN
02:35 42.9 °F 39.0 °F 30.14 in WSW 2.3 mph   86% 0.00 in WeatherDisplay:10.37 W/m2 BKN
02:40 42.9 °F 39.0 °F 30.14 in SW 3.5 mph   86% 0.00 in WeatherDisplay:10.37 W/m2 BKN
02:45 42.8 °F 39.2 °F 30.15 in WNW 3.5 mph   87% 0.00 in WeatherDisplay:10.37 W/m2 BKN
02:50 42.7 °F 39.1 °F 30.15 in NW 2.3 mph   87% 0.00 in WeatherDisplay:10.37 W/m2 BKN
02:55 42.7 °F 38.8 °F 30.15 in West 3.5 mph   86% 0.00 in WeatherDisplay:10.37 W/m2 BKN
03:00 42.6 °F 38.7 °F 30.15 in West 3.5 mph 3.5 mph 86% 0.00 in WeatherDisplay:10.37 W/m2 BKN
03:16 42.3 °F 37.8 °F 30.15 in WSW 1.2 mph 1.2 mph 84% 0.00 in WeatherDisplay:10.37 W/m2 BKN
03:21 42.1 °F 37.9 °F 30.15 in West 2.3 mph   85% 0.00 in WeatherDisplay:10.37 W/m2 BKN
03:26 42.0 °F 36.9 °F 30.14 in WNW 5.8 mph 5.8 mph 82% 0.00 in WeatherDisplay:10.37 W/m2 BKN
03:31 41.8 °F 36.7 °F 30.15 in SE 5.8 mph 5.8 mph 82% 0.00 in WeatherDisplay:10.37 W/m2 BKN
03:36 41.6 °F 36.5 °F 30.15 in South 5.8 mph 5.8 mph 82% 0.00 in WeatherDisplay:10.37 W/m2 BKN
03:41 41.4 °F 36.6 °F 30.15 in ESE 2.3 mph   83% 0.00 in WeatherDisplay:10.37 W/m2 BKN
03:46 41.2 °F 36.4 °F 30.15 in South 2.3 mph   83% 0.00 in WeatherDisplay:10.37 W/m2 BKN
03:51 41.1 °F 35.7 °F 30.15 in ESE 4.6 mph 4.6 mph 81% 0.00 in WeatherDisplay:10.37 W/m2 BKN
03:56 40.9 °F 35.8 °F 30.16 in SE 4.6 mph   82% 0.00 in WeatherDisplay:10.37 W/m2 BKN
04:01 40.7 °F 35.6 °F 30.15 in SW 3.5 mph   82% 0.00 in WeatherDisplay:10.37 W/m2 SCT
04:06 40.6 °F 34.9 °F 30.15 in East 3.5 mph 3.5 mph 80% 0.00 in WeatherDisplay:10.37 W/m2 SCT
04:12 40.5 °F 35.4 °F 30.15 in NE 3.5 mph   82% 0.00 in WeatherDisplay:10.37 W/m2 SCT
04:17 40.2 °F 35.1 °F 30.15 in NNW 2.3 mph   82% 0.00 in WeatherDisplay:10.37 W/m2 SCT
04:22 40.1 °F 35.0 °F 30.15 in SE 2.3 mph   82% 0.00 in WeatherDisplay:10.37 W/m2 SCT
04:27 39.9 °F 34.9 °F 30.14 in South 2.3 mph   82% 0.00 in WeatherDisplay:10.37 W/m2 SCT
04:32 39.8 °F 34.8 °F 30.14 in WSW 1.2 mph   82% 0.00 in WeatherDisplay:10.37 W/m2 SCT
04:37 39.7 °F 35.3 °F 30.14 in West 1.2 mph   84% 0.00 in WeatherDisplay:10.37 W/m2 SCT
04:42 39.6 °F 34.9 °F 30.15 in SSW 2.3 mph   83% 0.00 in WeatherDisplay:10.37 W/m2 SCT
04:47 39.5 °F 34.2 °F 30.15 in SE 2.3 mph 2.3 mph 81% 0.00 in WeatherDisplay:10.37 W/m2 SCT
04:52 39.4 °F 34.4 °F 30.15 in SSE 3.5 mph 3.5 mph 82% 0.00 in WeatherDisplay:10.37 W/m2 SCT
04:57 39.2 °F 34.2 °F 30.15 in SW 3.5 mph   82% 0.00 in WeatherDisplay:10.37 W/m2 SCT
05:02 39.1 °F 34.1 °F 30.15 in WSW 3.5 mph 3.5 mph 82% 0.00 in WeatherDisplay:10.37 W/m2 BKN
05:07 38.9 °F 33.9 °F 30.14 in West 1.2 mph   82% 0.00 in WeatherDisplay:10.37 W/m2 BKN
05:12 38.9 °F 33.9 °F 30.14 in NNW 1.2 mph   82% 0.00 in WeatherDisplay:10.37 W/m2 BKN
05:17 38.8 °F 33.8 °F 30.15 in North 1.2 mph   82% 0.00 in WeatherDisplay:10.37 W/m2 BKN
05:23 38.7 °F 33.7 °F 30.14 in NNW 1.2 mph 1.2 mph 82% 0.00 in WeatherDisplay:10.37 W/m2 BKN
05:28 38.6 °F 33.6 °F 30.14 in NW 1.2 mph   82% 0.00 in WeatherDisplay:10.37 W/m2 BKN
05:33 38.5 °F 33.5 °F 30.14 in WNW 1.2 mph   82% 0.00 in WeatherDisplay:10.37 W/m2 BKN
05:38 38.4 °F 33.1 °F 30.14 in WNW 1.2 mph   81% 0.00 in WeatherDisplay:10.37 W/m2 BKN
05:43 38.4 °F 33.1 °F 30.15 in WNW 1.2 mph   81% 0.00 in WeatherDisplay:10.37 W/m2 BKN
05:48 38.3 °F 33.0 °F 30.15 in WNW 1.2 mph 1.2 mph 81% 0.00 in WeatherDisplay:10.37 W/m2 BKN
05:53 38.3 °F 32.7 °F 30.15 in WNW 3.5 mph   80% 0.00 in WeatherDisplay:10.37 W/m2 BKN
05:58 38.2 °F 32.6 °F 30.16 in SSW 3.5 mph 3.5 mph 80% 0.00 in WeatherDisplay:10.37 W/m2 BKN
06:03 38.2 °F 32.6 °F 30.16 in NW 1.2 mph   80% 0.00 in WeatherDisplay:10.37 W/m2 OVC
06:08 38.1 °F 32.5 °F 30.16 in NW 1.2 mph   80% 0.00 in WeatherDisplay:10.37 W/m2 OVC
06:13 38.1 °F 32.2 °F 30.15 in NNW 1.2 mph   79% 0.00 in WeatherDisplay:10.37 W/m2 OVC
06:23 37.9 °F 32.3 °F 30.15 in NW 1.2 mph 1.2 mph 80% 0.00 in WeatherDisplay:10.37 W/m2 OVC
06:28 37.9 °F 32.0 °F 30.15 in NW 1.2 mph 1.2 mph 79% 0.00 in WeatherDisplay:10.37 W/m2 OVC
06:34 37.9 °F 31.7 °F 30.16 in NNW 4.6 mph 4.6 mph 78% 0.00 in WeatherDisplay:10.37 W/m2 OVC
06:39 37.8 °F 31.2 °F 30.16 in NNE 4.6 mph 4.6 mph 77% 0.00 in WeatherDisplay:10.37 W/m2 OVC
06:49 37.7 °F 31.1 °F 30.16 in NNW 2.3 mph 2.3 mph 77% 0.00 in WeatherDisplay:10.37 W/m2 OVC
06:54 37.7 °F 31.1 °F 30.16 in NNW 3.5 mph   77% 0.00 in WeatherDisplay:10.37 W/m2 OVC
06:59 37.8 °F 31.6 °F 30.17 in NNW 4.6 mph 4.6 mph 78% 0.00 in WeatherDisplay:10.37 W/m2 OVC
07:04 37.8 °F 31.6 °F 30.17 in WSW 4.6 mph 4.6 mph 78% 0.00 in WeatherDisplay:10.37 W/m2 BKN
07:09 37.8 °F 31.6 °F 30.17 in West 3.5 mph   78% 0.00 in WeatherDisplay:10.37 W/m2 BKN
07:14 37.8 °F 31.9 °F 30.17 in West 3.5 mph 3.5 mph 79% 0.00 in WeatherDisplay:10.37 W/m2 BKN
07:19 37.8 °F 31.9 °F 30.16 in West 2.3 mph   79% 0.00 in WeatherDisplay:10.37 W/m2 BKN
07:21 37.8 °F 31.9 °F 30.16 in West 2.3 mph   79% 0.00 in WeatherDisplay:10.37 W/m2 BKN
07:26 37.8 °F 31.6 °F 30.16 in NW 2.3 mph 2.3 mph 78% 0.00 in WeatherDisplay:10.37 W/m2 BKN
07:31 37.8 °F 31.6 °F 30.16 in NW 2.3 mph   78% 0.00 in WeatherDisplay:10.37 W/m2 BKN
07:36 37.8 °F 31.2 °F 30.16 in ENE 2.3 mph 2.3 mph 77% 0.00 in WeatherDisplay:10.37 W/m2 BKN
07:42 37.8 °F 31.2 °F 30.16 in NNE 3.5 mph 3.5 mph 77% 0.00 in WeatherDisplay:10.37 W/m2 BKN
07:47 37.8 °F 31.6 °F 30.16 in NW 3.5 mph 3.5 mph 78% 0.00 in WeatherDisplay:10.37 W/m2 BKN
07:52 37.8 °F 31.9 °F 30.16 in NW 2.3 mph   79% 0.00 in WeatherDisplay:10.37 W/m2 BKN
07:57 37.8 °F 31.6 °F 30.16 in WNW 2.3 mph   78% 0.00 in WeatherDisplay:10.37 W/m2 BKN
08:02 37.8 °F 31.2 °F 30.15 in WSW 2.3 mph 2.3 mph 77% 0.00 in WeatherDisplay:10.37 W/m2 OVC
08:07 37.9 °F 31.7 °F 30.17 in West 2.3 mph   78% 0.00 in WeatherDisplay:10.37 W/m2 OVC
08:12 37.9 °F 31.7 °F 30.17 in NW 2.3 mph   78% 0.00 in WeatherDisplay:10.37 W/m2 OVC
08:17 37.9 °F 31.0 °F 30.16 in WNW 4.6 mph   76% 0.00 in WeatherDisplay:10.37 W/m2 OVC
08:22 38.0 °F 31.4 °F 30.16 in NW 4.6 mph   77% 0.00 in WeatherDisplay:10.37 W/m2 OVC
08:27 38.1 °F 31.2 °F 30.17 in NW 2.3 mph 2.3 mph 76% 0.00 in WeatherDisplay:10.37 W/m2 OVC
08:33 38.1 °F 31.2 °F 30.18 in WNW 4.6 mph   76% 0.00 in WeatherDisplay:10.37 W/m2 OVC
08:38 38.2 °F 31.6 °F 30.18 in West 4.6 mph 4.6 mph 77% 0.00 in WeatherDisplay:10.37 W/m2 OVC
08:43 38.2 °F 31.0 °F 30.18 in NNE 2.3 mph 2.3 mph 75% 0.00 in WeatherDisplay:10.37 W/m2 OVC
08:48 38.3 °F 31.1 °F 30.18 in North 2.3 mph   75% 0.00 in WeatherDisplay:10.37 W/m2 OVC
08:53 38.4 °F 31.2 °F 30.18 in NNW 2.3 mph   75% 0.00 in WeatherDisplay:10.37 W/m2 OVC
08:58 38.5 °F 31.3 °F 30.18 in NW 1.2 mph   75% 0.00 in WeatherDisplay:10.37 W/m2 OVC
09:03 38.7 °F 31.1 °F 30.19 in WNW 1.2 mph   74% 0.00 in WeatherDisplay:10.37 W/m2 OVC
09:08 38.7 °F 31.1 °F 30.21 in NW 2.3 mph 2.3 mph 74% 0.00 in WeatherDisplay:10.37 W/m2 OVC
09:13 38.8 °F 31.2 °F 30.21 in WNW 2.3 mph 2.3 mph 74% 0.00 in WeatherDisplay:10.37 W/m2 OVC
09:18 38.9 °F 31.3 °F 30.20 in WNW 1.2 mph 1.2 mph 74% 0.00 in WeatherDisplay:10.37 W/m2 OVC
09:23 38.9 °F 29.6 °F 30.21 in North 4.6 mph 4.6 mph 69% 0.00 in WeatherDisplay:10.37 W/m2 OVC
09:28 39.0 °F 29.7 °F 30.22 in ENE 4.6 mph 4.6 mph 69% 0.00 in WeatherDisplay:10.37 W/m2 OVC
09:34 39.0 °F 29.7 °F 30.22 in NNE 4.6 mph 4.6 mph 69% 0.00 in WeatherDisplay:10.37 W/m2 OVC
09:39 39.0 °F 28.6 °F 30.22 in NW 3.5 mph 3.5 mph 66% 0.00 in WeatherDisplay:10.37 W/m2 OVC
09:44 38.9 °F 29.2 °F 30.22 in West 3.5 mph 3.5 mph 68% 0.00 in WeatherDisplay:10.37 W/m2 OVC
09:49 38.9 °F 28.5 °F 30.22 in WNW 3.5 mph   66% 0.00 in WeatherDisplay:10.37 W/m2 OVC
09:54 38.9 °F 28.9 °F 30.23 in North 3.5 mph   67% 0.00 in WeatherDisplay:10.37 W/m2 OVC
09:59 38.9 °F 28.9 °F 30.23 in West 3.5 mph   67% 0.00 in WeatherDisplay:10.37 W/m2 OVC
10:04 38.9 °F 28.9 °F 30.23 in West 3.5 mph 3.5 mph 67% 0.00 in WeatherDisplay:10.37 W/m2 OVC
10:09 38.9 °F 28.9 °F 30.23 in West 2.3 mph 2.3 mph 67% 0.00 in WeatherDisplay:10.37 W/m2 OVC
10:14 38.9 °F 28.1 °F 30.23 in SSW 2.3 mph 2.3 mph 65% 0.00 in WeatherDisplay:10.37 W/m2 OVC
10:19 38.8 °F 28.0 °F 30.23 in SSE 4.6 mph 4.6 mph 65% 0.00 in WeatherDisplay:10.37 W/m2 OVC
10:24 38.8 °F 28.0 °F 30.23 in South 4.6 mph 4.6 mph 65% 0.00 in WeatherDisplay:10.37 W/m2 OVC
10:29 38.8 °F 28.4 °F 30.23 in West 3.5 mph   66% 0.00 in WeatherDisplay:10.37 W/m2 OVC
10:34 38.9 °F 27.8 °F 30.23 in NW 2.3 mph 2.3 mph 64% 0.00 in WeatherDisplay:10.37 W/m2 OVC
10:40 39.0 °F 28.2 °F 30.23 in East 1.2 mph   65% 0.00 in WeatherDisplay:10.37 W/m2 OVC
10:45 39.1 °F 28.7 °F 30.23 in NNW 1.2 mph   66% 0.00 in WeatherDisplay:10.37 W/m2 OVC
10:50 39.3 °F 28.9 °F 30.23 in WNW 1.2 mph   66% 0.00 in WeatherDisplay:10.37 W/m2 OVC
10:55 39.4 °F 28.2 °F 30.23 in West 4.6 mph 4.6 mph 64% 0.00 in WeatherDisplay:10.37 W/m2 OVC
11:00 39.5 °F 27.9 °F 30.23 in SE 4.6 mph   63% 0.00 in WeatherDisplay:10.37 W/m2 OVC
11:05 39.6 °F 29.2 °F 30.22 in SSW 2.3 mph 2.3 mph 66% 0.00 in WeatherDisplay:10.37 W/m2 OVC
11:10 39.6 °F 27.6 °F 30.22 in NE 3.5 mph   62% 0.00 in WeatherDisplay:10.37 W/m2 OVC
11:15 39.6 °F 28.4 °F 30.22 in East 3.5 mph   64% 0.00 in WeatherDisplay:10.37 W/m2 OVC
11:20 39.6 °F 28.4 °F 30.22 in East 3.5 mph   64% 0.00 in WeatherDisplay:10.37 W/m2 OVC
11:25 39.7 °F 28.5 °F 30.22 in East 3.5 mph 3.5 mph 64% 0.00 in WeatherDisplay:10.37 W/m2 OVC
11:30 39.7 °F 27.7 °F 30.22 in SE 3.5 mph 3.5 mph 62% 0.00 in WeatherDisplay:10.37 W/m2 OVC
11:35 39.7 °F 28.1 °F 30.22 in SSW 3.5 mph 3.5 mph 63% 0.00 in WeatherDisplay:10.37 W/m2 OVC
11:40 39.8 °F 28.6 °F 30.21 in SSW 3.5 mph 3.5 mph 64% 0.00 in WeatherDisplay:10.37 W/m2 OVC
11:46 39.7 °F 27.7 °F 30.22 in SE 3.5 mph   62% 0.00 in WeatherDisplay:10.37 W/m2 OVC
11:51 39.7 °F 28.5 °F 30.21 in South 3.5 mph   64% 0.00 in WeatherDisplay:10.37 W/m2 OVC
11:56 39.7 °F 28.1 °F 30.22 in SW 3.5 mph 3.5 mph 63% 0.00 in WeatherDisplay:10.37 W/m2 OVC
12:01 39.7 °F 28.5 °F 30.22 in NNW 2.3 mph   64% 0.00 in WeatherDisplay:10.37 W/m2 -RA
12:04 39.7 °F 28.5 °F 30.22 in North 2.3 mph   64% 0.00 in WeatherDisplay:10.37 W/m2 -RA
12:09 39.6 °F 28.0 °F 30.22 in NNE 3.5 mph 3.5 mph 63% 0.00 in WeatherDisplay:10.37 W/m2 -RA
12:14 39.6 °F 28.0 °F 30.22 in NNE 3.5 mph   63% 0.00 in WeatherDisplay:10.37 W/m2 -RA
12:19 39.6 °F 28.4 °F 30.23 in NNW 3.5 mph   64% 0.00 in WeatherDisplay:10.37 W/m2 -RA
12:24 39.5 °F 29.8 °F 30.22 in WNW 1.2 mph   68% 0.00 in WeatherDisplay:10.37 W/m2 -RA
12:29 39.4 °F 29.3 °F 30.22 in WSW 3.5 mph 3.5 mph 67% 0.00 in WeatherDisplay:10.37 W/m2 -RA
12:34 39.2 °F 29.5 °F 30.22 in South 3.5 mph   68% 0.00 in WeatherDisplay:10.37 W/m2 -RA
12:45 38.9 °F 30.3 °F 30.22 in WNW 2.3 mph   71% 0.00 in WeatherDisplay:10.37 W/m2 -RA
12:46 38.8 °F 30.5 °F 30.22 in West 1.2 mph   72% 0.00 in WeatherDisplay:10.37 W/m2 -RA
12:51 38.7 °F 30.8 °F 30.22 in Calm     73% 0.00 in WeatherDisplay:10.37 W/m2 -RA
12:56 38.6 °F 31.0 °F 30.21 in West 1.2 mph   74% 0.00 in WeatherDisplay:10.37 W/m2 -RA
13:01 38.4 °F 30.5 °F 30.21 in WSW 1.2 mph   73% 0.00 in WeatherDisplay:10.37 W/m2 -RA
13:06 38.4 °F 30.8 °F 30.21 in SE 1.2 mph   74% 0.00 in WeatherDisplay:10.37 W/m2 -RA
13:12 38.2 °F 30.3 °F 30.21 in SE 3.5 mph   73% 0.00 in WeatherDisplay:10.37 W/m2 -RA
13:17 38.1 °F 30.9 °F 30.20 in SE 3.5 mph   75% 0.00 in WeatherDisplay:10.37 W/m2 -RA
13:22 38.0 °F 31.1 °F 30.21 in West 1.2 mph   76% 0.00 in WeatherDisplay:10.37 W/m2 -RA
13:27 37.7 °F 31.1 °F 30.20 in WNW 2.3 mph   77% 0.00 in WeatherDisplay:10.37 W/m2 -RA
13:32 37.6 °F 31.7 °F 30.20 in East 2.3 mph   79% 0.00 in WeatherDisplay:10.37 W/m2 -RA
13:37 37.4 °F 31.5 °F 30.20 in NE 1.2 mph   79% 0.01 in WeatherDisplay:10.37 W/m2 -RA
13:42 37.3 °F 32.0 °F 30.20 in NNE 1.2 mph   81% 0.01 in WeatherDisplay:10.37 W/m2 -RA
13:47 37.1 °F 31.8 °F 30.19 in North 1.2 mph   81% 0.01 in WeatherDisplay:10.37 W/m2 -RA
13:52 37.0 °F 32.3 °F 30.19 in Calm     83% 0.01 in WeatherDisplay:10.37 W/m2 -RA
13:57 36.9 °F 32.5 °F 30.19 in Calm     84% 0.01 in WeatherDisplay:10.37 W/m2 -RA
14:02 36.8 °F 32.4 °F 30.19 in Calm     84% 0.01 in WeatherDisplay:10.37 W/m2 -RA
14:12 36.9 °F 32.8 °F 30.18 in Calm     85% 0.02 in WeatherDisplay:10.37 W/m2 -RA
14:17 37.0 °F 32.9 °F 30.18 in Calm     85% 0.02 in WeatherDisplay:10.37 W/m2 -RA
14:23 37.1 °F 32.7 °F 30.18 in Calm     84% 0.02 in WeatherDisplay:10.37 W/m2 -RA
14:28 37.3 °F 32.3 °F 30.17 in WNW 1.2 mph   82% 0.02 in WeatherDisplay:10.37 W/m2 -RA
14:33 37.5 °F 33.1 °F 30.17 in West 1.2 mph   84% 0.02 in WeatherDisplay:10.37 W/m2 -RA
14:38 37.8 °F 33.4 °F 30.17 in Calm     84% 0.01 in WeatherDisplay:10.37 W/m2 -RA
14:43 37.9 °F 33.2 °F 30.16 in Calm     83% 0.01 in WeatherDisplay:10.37 W/m2 -RA
14:48 38.1 °F 32.5 °F 30.16 in WNW 1.2 mph 1.2 mph 80% 0.01 in WeatherDisplay:10.37 W/m2 OVC
14:53 38.3 °F 31.4 °F 30.16 in East 1.2 mph   76% 0.01 in WeatherDisplay:10.37 W/m2 OVC
14:58 38.5 °F 32.6 °F 30.16 in East 1.2 mph   79% 0.01 in WeatherDisplay:10.37 W/m2 OVC
15:03 38.6 °F 32.6 °F 30.15 in NE 1.2 mph 1.2 mph 79% 0.01 in WeatherDisplay:10.37 W/m2 OVC
15:08 38.7 °F 32.1 °F 30.15 in WNW 1.2 mph   77% 0.00 in WeatherDisplay:10.37 W/m2 OVC
15:18 38.9 °F 31.0 °F 30.14 in Calm     73% 0.00 in WeatherDisplay:10.37 W/m2 OVC
15:23 39.0 °F 31.7 °F 30.14 in Calm     75% 0.00 in WeatherDisplay:10.37 W/m2 OVC
15:34 39.2 °F 30.6 °F 30.14 in East 1.2 mph   71% 0.00 in WeatherDisplay:10.37 W/m2 OVC
15:39 39.3 °F 31.4 °F 30.14 in SE 1.2 mph   73% 0.00 in WeatherDisplay:10.37 W/m2 OVC
15:44 39.4 °F 31.5 °F 30.14 in WSW 1.2 mph   73% 0.00 in WeatherDisplay:10.37 W/m2 OVC
15:49 39.5 °F 31.9 °F 30.15 in West 1.2 mph   74% 0.00 in WeatherDisplay:10.37 W/m2 OVC
15:54 39.5 °F 31.2 °F 30.14 in Calm     72% 0.00 in WeatherDisplay:10.37 W/m2 OVC
15:59 39.5 °F 31.6 °F 30.15 in West 1.2 mph   73% 0.00 in WeatherDisplay:10.37 W/m2 OVC
16:04 39.6 °F 31.3 °F 30.15 in West 1.2 mph   72% 0.00 in WeatherDisplay:10.37 W/m2 OVC
16:09 39.8 °F 30.8 °F 30.16 in SW 1.2 mph   70% 0.00 in WeatherDisplay:10.37 W/m2 OVC
16:14 39.8 °F 30.5 °F 30.16 in WNW 1.2 mph   69% 0.00 in WeatherDisplay:10.37 W/m2 -RA
16:19 39.9 °F 30.2 °F 30.16 in WNW 2.3 mph   68% 0.00 in WeatherDisplay:10.37 W/m2 -RA
16:24 40.0 °F 30.6 °F 30.16 in WSW 2.3 mph   69% 0.00 in WeatherDisplay:10.37 W/m2 -RA
16:30 40.0 °F 30.3 °F 30.17 in SSW 1.2 mph   68% 0.00 in WeatherDisplay:10.37 W/m2 -RA
16:35 40.0 °F 31.4 °F 30.17 in Calm     71% 0.00 in WeatherDisplay:10.37 W/m2 -RA
16:40 40.0 °F 30.6 °F 30.17 in Calm   1.0 mph 69% 0.00 in WeatherDisplay:10.37 W/m2 OVC
16:42 40.0 °F 30.6 °F 30.17 in West 1.2 mph   69% 0.00 in WeatherDisplay:10.37 W/m2 OVC
16:47 40.0 °F 29.9 °F 30.17 in West 1.2 mph 1.2 mph 67% 0.00 in WeatherDisplay:10.37 W/m2 OVC
16:52 40.0 °F 30.3 °F 30.17 in West 1.2 mph 1.2 mph 68% 0.00 in WeatherDisplay:10.37 W/m2 OVC
16:57 39.9 °F 29.8 °F 30.17 in WSW 2.3 mph   67% 0.00 in WeatherDisplay:10.37 W/m2 OVC
17:02 39.9 °F 28.7 °F 30.17 in SW 2.3 mph   64% 0.00 in WeatherDisplay:10.37 W/m2 OVC
17:07 39.9 °F 29.1 °F 30.17 in WSW 1.2 mph   65% 0.00 in WeatherDisplay:10.37 W/m2 OVC
17:12 39.8 °F 28.6 °F 30.16 in SW 1.2 mph   64% 0.00 in WeatherDisplay:10.37 W/m2 OVC
17:17 39.8 °F 29.7 °F 30.16 in SSE 1.2 mph   67% 0.00 in WeatherDisplay:10.37 W/m2 OVC
17:22 39.7 °F 28.9 °F 30.17 in Calm     65% 0.00 in WeatherDisplay:10.37 W/m2 OVC
17:27 39.6 °F 29.2 °F 30.17 in South 1.2 mph   66% 0.00 in WeatherDisplay:10.37 W/m2 OVC
17:32 39.6 °F 29.9 °F 30.17 in WSW 1.2 mph   68% 0.00 in WeatherDisplay:10.37 W/m2 OVC
17:38 39.5 °F 29.4 °F 30.17 in West 1.2 mph   67% 0.00 in WeatherDisplay:10.37 W/m2 OVC
17:43 39.5 °F 29.4 °F 30.17 in West 1.2 mph   67% 0.00 in WeatherDisplay:10.37 W/m2 OVC
17:48 39.4 °F 29.3 °F 30.17 in West 1.2 mph   67% 0.00 in WeatherDisplay:10.37 W/m2 OVC
17:53 39.5 °F 30.2 °F 30.18 in West 1.2 mph   69% 0.00 in WeatherDisplay:10.37 W/m2 OVC
17:58 39.4 °F 30.1 °F 30.19 in WNW 1.2 mph   69% 0.00 in WeatherDisplay:10.37 W/m2 OVC
18:03 39.4 °F 29.3 °F 30.19 in Calm     67% 0.00 in WeatherDisplay:10.37 W/m2 OVC
18:08 39.4 °F 29.3 °F 30.19 in Calm     67% 0.00 in WeatherDisplay:10.37 W/m2 OVC
18:13 39.5 °F 28.3 °F 30.19 in WNW 2.3 mph   64% 0.00 in WeatherDisplay:10.37 W/m2 OVC
18:18 39.7 °F 29.3 °F 30.17 in West 2.3 mph   66% 0.00 in WeatherDisplay:10.37 W/m2 OVC
18:23 39.6 °F 29.2 °F 30.17 in West 1.2 mph   66% 0.00 in WeatherDisplay:10.37 W/m2 OVC
18:28 39.6 °F 28.4 °F 30.19 in West 1.2 mph   64% 0.00 in WeatherDisplay:10.37 W/m2 OVC
18:33 39.7 °F 28.9 °F 30.20 in WNW 1.2 mph   65% 0.00 in WeatherDisplay:10.37 W/m2 OVC
18:38 39.8 °F 29.4 °F 30.19 in WNW 1.2 mph   66% 0.00 in WeatherDisplay:10.37 W/m2 OVC
18:43 39.8 °F 27.8 °F 30.20 in WNW 2.3 mph 2.3 mph 62% 0.00 in WeatherDisplay:10.37 W/m2 OVC
18:48 39.9 °F 28.7 °F 30.20 in SSE 2.3 mph   64% 0.00 in WeatherDisplay:10.37 W/m2 OVC
18:54 39.9 °F 29.1 °F 30.19 in SSW 2.3 mph   65% 0.00 in WeatherDisplay:10.37 W/m2 OVC
18:59 39.9 °F 28.3 °F 30.19 in West 1.2 mph   63% 0.00 in WeatherDisplay:10.37 W/m2 OVC
19:04 39.9 °F 28.3 °F 30.20 in West 2.3 mph   63% 0.00 in WeatherDisplay:10.37 W/m2 OVC
19:09 39.9 °F 28.7 °F 30.21 in West 2.3 mph   64% 0.00 in WeatherDisplay:10.37 W/m2 OVC
19:14 39.9 °F 27.5 °F 30.21 in West 1.2 mph   61% 0.00 in WeatherDisplay:10.37 W/m2 OVC
19:19 40.0 °F 28.8 °F 30.21 in West 1.2 mph   64% 0.00 in WeatherDisplay:10.37 W/m2 OVC
19:24 40.1 °F 28.9 °F 30.22 in West 1.2 mph   64% 0.00 in WeatherDisplay:10.37 W/m2 OVC
19:29 40.1 °F 28.5 °F 30.22 in WSW 1.2 mph   63% 0.00 in WeatherDisplay:10.37 W/m2 OVC
19:34 40.1 °F 28.9 °F 30.22 in SE 1.2 mph   64% 0.00 in WeatherDisplay:10.37 W/m2 OVC
19:39 40.1 °F 28.5 °F 30.21 in East 1.2 mph   63% 0.00 in WeatherDisplay:10.37 W/m2 OVC
19:44 40.1 °F 27.3 °F 30.22 in East 1.2 mph   60% 0.00 in WeatherDisplay:10.37 W/m2 OVC
19:49 40.2 °F 28.6 °F 30.23 in East 1.2 mph 1.2 mph 63% 0.00 in WeatherDisplay:10.37 W/m2 OVC
19:54 40.1 °F 28.5 °F 30.22 in East 1.2 mph 1.2 mph 63% 0.00 in WeatherDisplay:10.37 W/m2 OVC
20:00 40.2 °F 27.8 °F 30.22 in East 2.3 mph   61% 0.00 in WeatherDisplay:10.37 W/m2 OVC
20:05 40.2 °F 27.8 °F 30.23 in East 2.3 mph   61% 0.00 in WeatherDisplay:10.37 W/m2 OVC
20:10 40.1 °F 29.3 °F 30.23 in East 1.2 mph   65% 0.00 in WeatherDisplay:10.37 W/m2 OVC
20:15 40.1 °F 28.5 °F 30.23 in East 1.2 mph   63% 0.00 in WeatherDisplay:10.37 W/m2 OVC
20:20 40.0 °F 27.6 °F 30.24 in East 1.2 mph 1.2 mph 61% 0.00 in WeatherDisplay:10.37 W/m2 OVC
20:25 40.1 °F 28.5 °F 30.24 in East 1.2 mph   63% 0.00 in WeatherDisplay:10.37 W/m2 OVC
20:30 40.1 °F 27.3 °F 30.24 in ESE 1.2 mph   60% 0.00 in WeatherDisplay:10.37 W/m2 OVC
20:35 40.2 °F 28.6 °F 30.24 in WSW 1.2 mph   63% 0.00 in WeatherDisplay:10.37 W/m2 OVC
20:40 40.2 °F 28.6 °F 30.24 in West 1.2 mph 1.2 mph 63% 0.00 in WeatherDisplay:10.37 W/m2 OVC
20:45 40.2 °F 27.8 °F 30.24 in West 1.2 mph   61% 0.00 in WeatherDisplay:10.37 W/m2 OVC
20:50 40.2 °F 27.4 °F 30.23 in West 1.2 mph 1.2 mph 60% 0.00 in WeatherDisplay:10.37 W/m2 OVC
20:56 40.4 °F 27.2 °F 30.23 in WSW 1.2 mph 1.2 mph 59% 0.00 in WeatherDisplay:10.37 W/m2 OVC
21:01 40.5 °F 26.9 °F 30.24 in SSW 1.2 mph   58% 0.00 in WeatherDisplay:10.37 W/m2 OVC
21:06 40.5 °F 28.5 °F 30.24 in SW 1.2 mph   62% 0.00 in WeatherDisplay:10.37 W/m2 OVC
21:11 40.4 °F 28.4 °F 30.23 in Calm     62% 0.00 in WeatherDisplay:10.37 W/m2 OVC
21:16 40.3 °F 28.7 °F 30.23 in WSW 1.2 mph   63% 0.00 in WeatherDisplay:10.37 W/m2 OVC
21:21 40.4 °F 27.2 °F 30.22 in SSE 1.2 mph   59% 0.00 in WeatherDisplay:10.37 W/m2 OVC
21:26 40.4 °F 28.4 °F 30.23 in ESE 1.2 mph   62% 0.00 in WeatherDisplay:10.37 W/m2 OVC
21:31 40.3 °F 28.3 °F 30.23 in Calm     62% 0.00 in WeatherDisplay:10.37 W/m2 OVC
21:36 40.3 °F 28.3 °F 30.24 in Calm     62% 0.00 in WeatherDisplay:10.37 W/m2 OVC
21:41 40.2 °F 29.0 °F 30.24 in Calm     64% 0.00 in WeatherDisplay:10.37 W/m2 OVC
21:46 40.2 °F 29.4 °F 30.23 in Calm     65% 0.00 in WeatherDisplay:10.37 W/m2 OVC
21:51 40.2 °F 29.4 °F 30.23 in Calm     65% 0.00 in WeatherDisplay:10.37 W/m2 OVC
21:56 40.1 °F 29.3 °F 30.24 in Calm     65% 0.00 in WeatherDisplay:10.37 W/m2 OVC
22:02 40.1 °F 29.6 °F 30.24 in Calm     66% 0.00 in WeatherDisplay:10.37 W/m2 OVC
22:07 40.1 °F 29.6 °F 30.23 in Calm     66% 0.00 in WeatherDisplay:10.37 W/m2 OVC
22:14 40.0 °F 30.3 °F 30.23 in Calm     68% 0.00 in WeatherDisplay:10.37 W/m2 OVC
22:19 39.9 °F 30.2 °F 30.23 in Calm     68% 0.00 in WeatherDisplay:10.37 W/m2 OVC
22:24 39.9 °F 30.5 °F 30.23 in Calm     69% 0.00 in WeatherDisplay:10.37 W/m2 OVC
22:25 39.9 °F 30.5 °F 30.23 in Calm     69% 0.00 in WeatherDisplay:10.37 W/m2 OVC
22:27 39.9 °F 30.2 °F 30.23 in Calm     68% 0.00 in WeatherDisplay:10.37 W/m2 OVC
22:32 39.9 °F 30.2 °F 30.23 in Calm     68% 0.00 in WeatherDisplay:10.37 W/m2 OVC
22:37 39.8 °F 29.4 °F 30.23 in Calm     66% 0.00 in WeatherDisplay:10.37 W/m2 OVC
22:42 39.9 °F 30.2 °F 30.23 in Calm     68% 0.00 in WeatherDisplay:10.37 W/m2 OVC
22:47 39.8 °F 29.7 °F 30.24 in Calm     67% 0.00 in WeatherDisplay:10.37 W/m2 OVC
22:52 39.8 °F 30.1 °F 30.24 in Calm     68% 0.00 in WeatherDisplay:10.37 W/m2 OVC
22:57 39.7 °F 30.7 °F 30.24 in Calm     70% 0.00 in WeatherDisplay:10.37 W/m2 OVC
23:02 39.7 °F 30.4 °F 30.24 in Calm     69% 0.00 in WeatherDisplay:10.37 W/m2 OVC
23:07 39.7 °F 30.7 °F 30.24 in Calm     70% 0.00 in WeatherDisplay:10.37 W/m2 OVC
23:12 39.7 °F 31.1 °F 30.25 in Calm     71% 0.00 in WeatherDisplay:10.37 W/m2 OVC
23:17 39.7 °F 31.1 °F 30.24 in Calm     71% 0.00 in WeatherDisplay:10.37 W/m2 OVC
23:23 39.7 °F 30.7 °F 30.24 in Calm     70% 0.00 in WeatherDisplay:10.37 W/m2 OVC
23:28 39.7 °F 31.1 °F 30.24 in Calm     71% 0.00 in WeatherDisplay:10.37 W/m2 OVC
23:33 39.7 °F 30.7 °F 30.23 in Calm     70% 0.00 in WeatherDisplay:10.37 W/m2 OVC
23:38 39.7 °F 31.4 °F 30.24 in Calm     72% 0.00 in WeatherDisplay:10.37 W/m2 OVC
23:43 39.6 °F 31.3 °F 30.23 in Calm     72% 0.00 in WeatherDisplay:10.37 W/m2 OVC
23:48 39.6 °F 31.3 °F 30.23 in Calm     72% 0.00 in WeatherDisplay:10.37 W/m2 OVC
23:53 39.5 °F 31.2 °F 30.23 in Calm     72% 0.00 in WeatherDisplay:10.37 W/m2 OVC
23:58 39.5 °F 30.9 °F 30.22 in Calm     71% 0.00 in WeatherDisplay:10.37 W/m2 OVC
Piedmont Bend
Compliments of Weather Underground - 4 mb